Time;durP1;ratioP1;P1;durP2;ratioP2;P2;SDS_P1;SDS_P2;PMS_P1;PMS_P2;Temp;Humidity;BMP_temperature;BMP_pressure;BME280_temperature;BME280_humidity;BME280_pressure;Samples;Min_cycle;Max_cycle;Signal;HPM_P1;HPM_P2
2022/09/20 00:01:21;;;;;;;6.35;1.30;;;10.10;99.90;;;;;;4936084;29;20115;-78
2022/09/20 00:03:51;;;;;;;8.77;1.60;;;9.70;99.90;;;;;;4936334;29;20060;-78
2022/09/20 00:06:20;;;;;;;7.47;1.58;;;9.60;99.90;;;;;;4936286;29;20369;-78
2022/09/20 00:08:46;;;;;;;6.57;1.65;;;9.50;99.90;;;;;;4936205;29;20048;-77
2022/09/20 00:11:21;;;;;;;10.00;1.60;;;9.50;99.90;;;;;;4936241;29;20050;-77
2022/09/20 00:13:49;;;;;;;4.82;1.40;;;9.40;99.90;;;;;;4936294;29;20051;-79
2022/09/20 00:16:20;;;;;;;8.57;1.58;;;9.40;99.90;;;;;;4936135;29;20036;-75
2022/09/20 00:18:55;;;;;;;8.15;1.50;;;9.40;99.90;;;;;;4936304;29;20094;-79
2022/09/20 00:21:27;;;;;;;5.10;1.80;;;9.30;99.90;;;;;;4936979;29;20484;-77
2022/09/20 00:23:52;;;;;;;6.88;1.58;;;9.20;99.90;;;;;;4939744;29;20443;-77
2022/09/20 00:26:18;;;;;;;3.83;1.33;;;9.20;99.90;;;;;;4939788;29;20043;-79
2022/09/20 00:28:45;;;;;;;6.32;1.55;;;9.20;99.90;;;;;;4939611;29;20044;-79
2022/09/20 00:31:11;;;;;;;;;;;9.10;99.90;;;;;;4939263;29;20055;-76
2022/09/20 00:36:22;;;;;;;4.55;1.30;;;9.00;99.90;;;;;;4939545;29;20091;-76
2022/09/20 00:38:47;;;;;;;5.78;1.60;;;8.90;99.90;;;;;;4939536;29;20064;-80
2022/09/20 00:41:15;;;;;;;3.97;1.30;;;8.90;99.90;;;;;;4939495;29;20044;-81
2022/09/20 00:43:43;;;;;;;7.22;1.63;;;8.80;99.90;;;;;;4938288;29;20127;-79
2022/09/20 00:46:32;;;;;;;6.45;1.40;;;8.70;99.90;;;;;;4939422;29;20131;-78
2022/09/20 00:49:04;;;;;;;8.20;2.40;;;8.70;99.90;;;;;;4939450;29;20048;-77
2022/09/20 00:51:35;;;;;;;5.63;1.80;;;8.60;99.90;;;;;;4939402;29;20051;-77
2022/09/20 00:54:04;;;;;;;7.45;1.98;;;8.60;99.90;;;;;;4939343;29;20043;-77
2022/09/20 00:56:36;;;;;;;9.18;1.65;;;8.60;99.90;;;;;;4939143;29;20046;-81
2022/09/20 00:59:17;;;;;;;6.00;1.30;;;8.60;99.90;;;;;;4939282;29;20068;-77
2022/09/20 01:01:45;;;;;;;7.13;1.58;;;8.50;99.90;;;;;;4939105;29;20142;-77
2022/09/20 01:04:15;;;;;;;4.07;1.42;;;8.50;99.90;;;;;;4939083;29;20054;-79
2022/09/20 01:06:43;;;;;;;4.63;1.38;;;8.50;99.90;;;;;;4939031;29;20535;-79
2022/09/20 01:09:09;;;;;;;5.53;1.42;;;8.40;99.90;;;;;;4938948;29;20055;-80
2022/09/20 01:11:36;;;;;;;9.77;1.83;;;8.40;99.90;;;;;;4937818;29;20087;-76
2022/09/20 01:14:02;;;;;;;11.10;1.92;;;8.40;99.90;;;;;;4937993;29;20142;-79
2022/09/20 01:16:29;;;;;;;4.20;1.33;;;8.30;99.90;;;;;;4938770;29;20095;-77
2022/09/20 01:19:03;;;;;;;5.50;1.30;;;8.30;99.90;;;;;;4938862;29;20051;-78
2022/09/20 01:21:30;;;;;;;6.35;1.27;;;8.30;99.90;;;;;;4938844;29;20048;-76
2022/09/20 01:24:06;;;;;;;6.22;1.15;;;8.20;99.90;;;;;;4938772;29;20094;-79
2022/09/20 01:27:06;;;;;;;4.50;1.30;;;8.20;99.90;;;;;;4938754;29;20055;-78
2022/09/20 01:29:56;;;;;;;6.72;1.70;;;8.20;99.90;;;;;;4938926;29;20048;-78
2022/09/20 01:32:26;;;;;;;5.57;1.30;;;8.20;99.90;;;;;;4938422;29;20056;-79
2022/09/20 01:34:56;;;;;;;5.03;1.30;;;8.10;99.90;;;;;;4937574;29;20066;-80
2022/09/20 01:37:48;;;;;;;4.68;1.25;;;8.10;99.90;;;;;;4938527;29;20040;-79
2022/09/20 01:40:31;;;;;;;6.85;1.20;;;8.00;99.90;;;;;;4938452;29;20075;-78
2022/09/20 01:43:13;;;;;;;5.75;1.45;;;7.90;99.90;;;;;;4938578;29;20052;-78
2022/09/20 01:45:45;;;;;;;3.70;1.42;;;7.90;99.90;;;;;;4938475;29;20183;-78
2022/09/20 01:48:40;;;;;;;6.65;2.00;;;7.90;99.90;;;;;;4938744;29;20050;-77
2022/09/20 01:51:08;;;;;;;3.92;1.00;;;7.90;99.90;;;;;;4937007;29;20059;-78
2022/09/20 01:54:10;;;;;;;7.95;1.65;;;7.90;99.90;;;;;;4937828;29;20503;-80
2022/09/20 01:56:50;;;;;;;6.63;1.73;;;7.80;99.90;;;;;;4938100;29;20099;-79
2022/09/20 01:59:48;;;;;;;8.32;2.17;;;7.80;99.90;;;;;;4937850;29;20507;-79
2022/09/20 02:02:40;;;;;;;6.18;1.50;;;7.90;99.90;;;;;;4938011;29;20101;-80
2022/09/20 02:05:27;;;;;;;4.93;1.25;;;7.80;99.90;;;;;;4938043;29;20103;-77
2022/09/20 02:08:18;;;;;;;5.43;1.42;;;7.80;99.90;;;;;;4937987;29;20043;-80
2022/09/20 02:11:16;;;;;;;9.30;1.55;;;7.80;99.90;;;;;;4937882;29;20047;-80
2022/09/20 02:13:52;;;;;;;3.70;1.48;;;7.80;99.90;;;;;;4936858;29;20044;-81
2022/09/20 02:16:33;;;;;;;3.38;1.30;;;7.80;99.90;;;;;;4937941;29;20048;-77
2022/09/20 02:19:10;;;;;;;5.93;1.10;;;7.80;99.90;;;;;;4937631;29;20083;-79
2022/09/20 02:22:13;;;;;;;6.30;1.50;;;7.80;99.90;;;;;;4938099;29;20138;-76
2022/09/20 02:25:34;;;;;;;6.95;1.63;;;7.80;99.90;;;;;;4937611;29;20052;-80
2022/09/20 02:28:06;;;;;;;4.53;1.55;;;7.70;99.90;;;;;;4882457;29;20049;-77
2022/09/20 02:30:46;;;;;;;4.97;1.25;;;7.70;99.90;;;;;;4936683;29;20063;-80
2022/09/20 02:33:43;;;;;;;7.68;1.25;;;7.70;99.90;;;;;;4936736;29;20207;-81
2022/09/20 02:36:26;;;;;;;7.10;1.52;;;7.70;99.90;;;;;;4937607;29;20047;-79
2022/09/20 02:39:07;;;;;;;5.95;1.73;;;7.60;99.90;;;;;;4937458;29;20064;-76
2022/09/20 02:41:53;;;;;;;6.50;1.20;;;7.60;99.90;;;;;;4937525;29;20048;-77
2022/09/20 02:44:37;;;;;;;4.63;1.10;;;7.60;99.90;;;;;;4937362;29;20131;-77
2022/09/20 02:47:16;;;;;;;5.60;1.77;;;7.60;99.90;;;;;;4937813;29;20048;-81
2022/09/20 02:49:51;;;;;;;7.18;1.58;;;7.50;99.90;;;;;;4936527;29;20123;-79
2022/09/20 02:52:36;;;;;;;4.93;1.00;;;7.50;99.90;;;;;;4937230;29;20055;-81
2022/09/20 02:55:11;;;;;;;5.22;1.17;;;7.50;99.90;;;;;;4937230;29;20047;-80
2022/09/20 02:57:42;;;;;;;3.47;1.42;;;7.50;99.90;;;;;;4937251;29;20064;-78
2022/09/20 03:00:25;;;;;;;5.00;1.50;;;7.40;99.90;;;;;;4936851;29;20135;-77
2022/09/20 03:03:19;;;;;;;3.22;1.27;;;7.40;99.90;;;;;;4937118;29;20369;-79
2022/09/20 03:06:01;;;;;;;6.93;1.35;;;7.40;99.90;;;;;;4929560;29;20060;-79
2022/09/20 03:08:53;;;;;;;3.38;1.10;;;7.40;99.90;;;;;;4936952;29;20052;-80
2022/09/20 03:11:25;;;;;;;5.47;1.23;;;7.30;99.90;;;;;;4936857;29;20115;-79
2022/09/20 03:14:09;;;;;;;5.05;1.15;;;7.30;99.90;;;;;;4937088;29;20082;-76
2022/09/20 03:16:50;;;;;;;5.65;1.27;;;7.30;99.90;;;;;;4936869;29;20047;-80
2022/09/20 03:19:59;;;;;;;5.43;1.27;;;7.30;99.90;;;;;;4937068;29;20054;-77
2022/09/20 03:22:46;;;;;;;4.75;1.20;;;7.30;99.90;;;;;;4937388;29;20463;-77
2022/09/20 03:25:41;;;;;;;5.60;1.23;;;7.20;99.90;;;;;;4936793;29;20043;-77
2022/09/20 03:28:45;;;;;;;6.10;1.58;;;7.30;99.90;;;;;;4936828;29;20052;-76
2022/09/20 03:31:35;;;;;;;7.63;1.10;;;7.30;99.90;;;;;;4916243;29;20055;-80
2022/09/20 03:34:16;;;;;;;6.72;1.38;;;7.20;99.90;;;;;;4936299;29;20130;-80
2022/09/20 03:37:15;;;;;;;5.38;1.38;;;7.30;99.90;;;;;;4936889;29;20121;-78
2022/09/20 03:39:59;;;;;;;;;;;7.20;99.90;;;;;;4937205;29;20055;-78
2022/09/20 03:42:28;;;;;;;6.38;1.35;;;7.10;99.90;;;;;;4936496;29;19923;-81
2022/09/20 03:45:15;;;;;;;5.82;1.50;;;7.10;99.90;;;;;;4935891;29;20043;-80
2022/09/20 03:48:18;;;;;;;6.03;1.77;;;7.10;99.90;;;;;;4936405;29;20040;-77
2022/09/20 03:50:46;;;;;;;3.60;1.20;;;7.00;99.90;;;;;;4936641;29;20123;-76
2022/09/20 03:53:50;;;;;;;2.00;1.10;;;7.00;99.90;;;;;;4935183;29;20130;-79
2022/09/20 03:56:29;;;;;;;5.22;1.42;;;7.00;99.90;;;;;;4938656;29;20044;-79
2022/09/20 03:59:21;;;;;;;3.28;1.13;;;7.00;99.90;;;;;;4940520;29;20062;-80
2022/09/20 04:02:02;;;;;;;3.40;1.38;;;6.90;99.90;;;;;;4940562;29;20083;-78
2022/09/20 04:04:54;;;;;;;5.38;1.50;;;6.90;99.90;;;;;;4940501;29;20107;-79
2022/09/20 04:07:39;;;;;;;3.72;1.17;;;6.90;99.90;;;;;;4940233;29;20048;-78
2022/09/20 04:10:17;;;;;;;6.88;1.58;;;6.80;99.90;;;;;;4939765;29;20578;-80
2022/09/20 04:13:04;;;;;;;;;;;6.80;99.90;;;;;;4940293;29;20099;-78
2022/09/20 04:15:40;;;;;;;4.70;1.45;;;6.80;99.90;;;;;;4940188;29;19965;-81
2022/09/20 04:18:45;;;;;;;8.63;1.65;;;6.80;99.90;;;;;;4939747;29;20377;-79
2022/09/20 04:21:25;;;;;;;6.57;1.45;;;6.80;99.90;;;;;;4940668;29;20047;-80
2022/09/20 04:24:09;;;;;;;7.25;1.40;;;6.80;99.90;;;;;;4940297;29;20047;-80
2022/09/20 04:26:46;;;;;;;2.80;1.20;;;6.80;99.90;;;;;;4940007;29;20130;-79
2022/09/20 04:29:25;;;;;;;6.80;1.85;;;6.80;99.90;;;;;;4939971;29;20044;-79
2022/09/20 04:32:16;;;;;;;5.47;1.48;;;6.80;99.90;;;;;;4940105;29;20048;-76
2022/09/20 04:37:38;;;;;;;6.03;1.48;;;6.70;99.90;;;;;;4939731;29;20055;-77
2022/09/20 04:40:26;;;;;;;5.70;1.48;;;6.70;99.90;;;;;;4939933;29;20127;-77
2022/09/20 04:43:27;;;;;;;11.90;1.73;;;6.60;99.90;;;;;;4939805;29;20047;-76
2022/09/20 04:46:01;;;;;;;8.52;1.80;;;6.60;99.90;;;;;;4905655;29;20095;-79
2022/09/20 04:48:35;;;;;;;2.28;1.30;;;6.70;99.90;;;;;;4939946;29;20087;-76
2022/09/20 04:51:35;;;;;;;11.23;1.70;;;6.70;99.90;;;;;;4939598;29;20047;-78
2022/09/20 04:54:16;;;;;;;5.25;1.60;;;6.70;99.90;;;;;;4939606;29;20488;-80
2022/09/20 04:57:18;;;;;;;4.75;1.83;;;6.70;99.90;;;;;;4939633;29;20055;-80
2022/09/20 05:00:10;;;;;;;7.30;1.92;;;6.70;99.90;;;;;;4939597;29;20044;-78
2022/09/20 05:02:53;;;;;;;4.72;1.40;;;6.70;99.90;;;;;;4939998;29;20052;-78
2022/09/20 05:05:23;;;;;;;4.00;1.40;;;6.70;99.90;;;;;;4939591;29;20047;-78
2022/09/20 05:08:07;;;;;;;4.18;1.75;;;6.70;99.90;;;;;;4938706;29;20086;-78
2022/09/20 05:11:16;;;;;;;4.25;1.40;;;6.80;99.90;;;;;;4939052;29;20058;-78
2022/09/20 05:14:16;;;;;;;5.80;1.55;;;6.80;99.90;;;;;;4939467;29;20058;-78
2022/09/20 05:17:18;;;;;;;4.72;1.65;;;6.80;99.90;;;;;;4939003;29;20047;-78
2022/09/20 05:20:25;;;;;;;3.22;1.50;;;6.80;99.90;;;;;;4939257;29;20047;-77
2022/09/20 05:22:59;;;;;;;6.88;1.70;;;6.90;99.90;;;;;;4938674;29;20114;-81
2022/09/20 05:25:31;;;;;;;8.13;2.25;;;7.00;99.90;;;;;;4939172;29;20488;-78
2022/09/20 05:28:15;;;;;;;8.30;2.72;;;7.00;99.90;;;;;;4938780;29;20134;-79
2022/09/20 05:30:52;;;;;;;7.10;1.90;;;7.10;99.90;;;;;;4939021;29;20146;-78
2022/09/20 05:33:30;;;;;;;;;;;7.20;99.90;;;;;;4939192;29;20051;-80
2022/09/20 05:36:18;;;;;;;4.95;1.90;;;7.30;99.90;;;;;;4938631;29;19923;-78
2022/09/20 05:38:48;;;;;;;5.85;1.75;;;7.40;99.90;;;;;;4938750;29;20407;-81
2022/09/20 05:41:35;;;;;;;4.63;2.03;;;7.50;99.90;;;;;;4938698;29;20052;-76
2022/09/20 05:44:24;;;;;;;5.53;2.17;;;7.60;99.90;;;;;;4938417;29;20562;-81
2022/09/20 05:47:29;;;;;;;8.75;2.33;;;7.70;99.90;;;;;;4938659;29;20047;-80
2022/09/20 05:50:19;;;;;;;4.82;1.80;;;7.90;99.90;;;;;;4938078;29;20057;-78
2022/09/20 05:52:59;;;;;;;3.55;1.85;;;8.00;99.90;;;;;;4938610;29;20453;-80
2022/09/20 05:56:07;;;;;;;4.95;1.92;;;8.00;99.90;;;;;;4937995;29;20571;-80
2022/09/20 05:58:47;;;;;;;10.05;3.58;;;8.20;99.90;;;;;;4938076;29;20050;-80
2022/09/20 06:01:32;;;;;;;10.82;5.28;;;8.20;99.90;;;;;;4938166;29;20051;-80
2022/09/20 06:04:28;;;;;;;16.70;4.22;;;8.40;99.90;;;;;;4938098;29;20050;-81
2022/09/20 06:07:24;;;;;;;6.07;3.13;;;8.50;99.90;;;;;;4921452;29;20060;-79
2022/09/20 06:10:30;;;;;;;6.38;2.35;;;8.50;99.90;;;;;;4937259;29;20048;-80
2022/09/20 06:13:10;;;;;;;4.30;1.67;;;8.60;99.90;;;;;;4917716;29;20123;-80
2022/09/20 06:15:57;;;;;;;2.83;1.67;;;8.80;99.90;;;;;;4938261;29;20044;-80
2022/09/20 06:18:30;;;;;;;4.57;1.50;;;8.80;99.90;;;;;;4936756;29;20043;-82
2022/09/20 06:21:20;;;;;;;11.73;2.63;;;8.90;99.90;;;;;;4937347;29;20091;-79
2022/09/20 06:23:46;;;;;;;6.97;1.45;;;9.10;99.90;;;;;;4937309;29;20571;-81
2022/09/20 06:26:19;;;;;;;5.75;1.85;;;9.20;99.90;;;;;;4937353;29;20130;-78
2022/09/20 06:28:53;;;;;;;4.00;1.70;;;9.30;99.90;;;;;;4937472;29;20123;-77
2022/09/20 06:31:19;;;;;;;3.88;1.35;;;9.40;99.90;;;;;;4937434;29;20488;-76
2022/09/20 06:33:56;;;;;;;7.10;1.63;;;9.50;99.90;;;;;;4937568;29;20070;-79
2022/09/20 06:42:19;;;;;;;3.95;1.30;;;9.90;99.90;;;;;;4937281;29;20052;-80
2022/09/20 06:44:45;;;;;;;5.20;1.58;;;10.00;99.90;;;;;;4937741;29;20055;-77
2022/09/20 06:47:11;;;;;;;3.58;1.20;;;10.00;99.90;;;;;;4937290;29;20420;-78
2022/09/20 06:49:38;;;;;;;2.20;1.13;;;10.10;99.90;;;;;;4937224;29;20051;-78
2022/09/20 06:52:15;;;;;;;5.72;1.27;;;10.20;99.90;;;;;;4937561;29;20385;-78
2022/09/20 06:54:45;;;;;;;7.03;1.25;;;10.20;99.90;;;;;;4936006;29;20047;-80
2022/09/20 06:57:15;;;;;;;5.68;1.80;;;10.30;99.90;;;;;;4937076;29;20492;-80
2022/09/20 06:59:41;;;;;;;4.57;1.45;;;10.40;99.90;;;;;;4937078;29;20055;-75
2022/09/20 07:02:07;;;;;;;4.97;1.30;;;10.40;99.90;;;;;;4937025;29;20399;-80
2022/09/20 07:04:33;;;;;;;4.05;1.50;;;10.50;99.90;;;;;;4937028;29;20055;-79
2022/09/20 07:07:03;;;;;;;4.47;1.45;;;10.50;99.90;;;;;;4936588;29;20554;-79
2022/09/20 07:09:30;;;;;;;4.10;1.40;;;10.50;99.90;;;;;;4936847;29;20087;-80
2022/09/20 07:11:57;;;;;;;3.50;1.65;;;10.60;99.90;;;;;;4936644;29;20513;-78
2022/09/20 07:14:25;;;;;;;7.45;1.48;;;10.60;99.90;;;;;;4936842;29;20079;-78
2022/09/20 07:16:51;;;;;;;5.05;1.42;;;10.60;99.90;;;;;;4936747;29;20047;-78
2022/09/20 07:19:17;;;;;;;3.67;1.30;;;10.60;99.90;;;;;;4935991;29;20102;-77
2022/09/20 07:21:42;;;;;;;5.85;1.52;;;10.60;99.90;;;;;;4936705;29;20487;-78
2022/09/20 07:24:08;;;;;;;3.35;1.63;;;10.70;99.90;;;;;;4936421;29;20051;-78
2022/09/20 07:26:34;;;;;;;3.67;1.25;;;10.70;99.90;;;;;;4936683;29;20103;-78
2022/09/20 07:29:00;;;;;;;4.45;1.75;;;10.80;99.90;;;;;;4936709;29;20043;-77
2022/09/20 07:31:28;;;;;;;9.18;1.70;;;10.80;99.90;;;;;;4936387;29;20431;-81
2022/09/20 07:33:54;;;;;;;8.27;1.67;;;11.20;99.90;;;;;;4936617;29;20052;-79
2022/09/20 07:36:20;;;;;;;5.07;1.93;;;10.80;99.90;;;;;;4936534;29;20044;-78
2022/09/20 07:38:51;;;;;;;5.22;2.28;;;10.80;99.90;;;;;;4936080;29;20054;-79
2022/09/20 07:41:18;;;;;;;7.20;1.45;;;10.80;99.90;;;;;;4936501;29;20044;-77
2022/09/20 07:43:44;;;;;;;4.05;1.35;;;10.80;99.90;;;;;;4936325;29;20091;-82
2022/09/20 07:46:12;;;;;;;6.97;2.05;;;10.80;99.90;;;;;;4936351;29;20404;-79
2022/09/20 07:48:39;;;;;;;10.95;1.63;;;10.80;99.90;;;;;;4936440;29;20392;-79
2022/09/20 07:51:11;;;;;;;4.80;1.52;;;11.00;99.90;;;;;;4936445;29;20077;-76
2022/09/20 07:53:37;;;;;;;5.47;2.00;;;11.10;99.90;;;;;;4936907;29;20074;-80
2022/09/20 07:56:13;;;;;;;4.40;1.70;;;11.40;99.90;;;;;;4936777;29;20044;-80
2022/09/20 07:58:38;;;;;;;5.07;1.40;;;11.60;99.90;;;;;;4936400;29;20039;-82
2022/09/20 08:01:09;;;;;;;4.90;1.50;;;11.90;99.90;;;;;;4936495;29;20070;-84
2022/09/20 08:03:35;;;;;;;5.85;1.55;;;12.10;99.90;;;;;;4936373;29;20051;-78
2022/09/20 08:06:06;;;;;;;3.50;1.33;;;12.20;99.90;;;;;;4936152;29;20440;-76
2022/09/20 08:08:35;;;;;;;5.80;1.70;;;12.30;99.90;;;;;;4935243;29;20062;-78
2022/09/20 08:11:05;;;;;;;3.90;1.42;;;12.40;99.90;;;;;;4935146;29;20044;-79
2022/09/20 08:13:37;;;;;;;5.50;1.60;;;12.40;99.90;;;;;;4935718;29;20391;-81
2022/09/20 08:16:04;;;;;;;6.45;1.50;;;12.50;99.90;;;;;;4936183;29;20048;-83
2022/09/20 08:18:30;;;;;;;6.22;1.77;;;12.60;99.90;;;;;;4935021;29;20050;-79
2022/09/20 08:21:05;;;;;;;6.53;1.47;;;12.60;99.90;;;;;;4936129;29;20043;-81
2022/09/20 08:23:34;;;;;;;5.22;1.60;;;12.70;99.90;;;;;;4936379;29;20106;-78
2022/09/20 08:26:00;;;;;;;4.15;1.45;;;12.70;99.90;;;;;;4934172;29;20039;-79
2022/09/20 08:28:25;;;;;;;5.73;1.27;;;12.80;99.90;;;;;;4919009;29;20040;-79
2022/09/20 08:30:51;;;;;;;6.13;1.20;;;12.80;99.90;;;;;;4920289;29;20744;-80
2022/09/20 08:33:17;;;;;;;5.50;1.08;;;13.00;99.90;;;;;;4938701;28;20102;-83
2022/09/20 08:35:42;;;;;;;4.97;1.20;;;13.00;99.90;;;;;;4935760;29;20127;-84
2022/09/20 08:38:08;;;;;;;3.95;1.17;;;12.90;99.90;;;;;;4934419;29;20083;-76
2022/09/20 08:40:35;;;;;;;3.08;1.15;;;13.20;99.90;;;;;;4936054;29;20135;-77
2022/09/20 08:43:01;;;;;;;7.90;1.20;;;13.00;99.90;;;;;;4937820;29;20043;-75
2022/09/20 08:45:27;;;;;;;5.50;1.20;;;13.00;99.90;;;;;;4939573;29;20055;-78
2022/09/20 08:48:01;;;;;;;4.68;1.20;;;13.10;99.90;;;;;;4939369;29;20487;-77
2022/09/20 08:50:27;;;;;;;5.65;1.05;;;13.10;99.90;;;;;;4939326;29;20055;-79
2022/09/20 08:52:56;;;;;;;4.18;1.20;;;13.20;99.90;;;;;;4939425;29;20054;-75
2022/09/20 08:55:26;;;;;;;2.70;1.02;;;13.30;99.90;;;;;;4939323;29;20059;-76
2022/09/20 08:57:54;;;;;;;4.05;1.10;;;13.30;99.90;;;;;;4939345;29;20047;-77
2022/09/20 09:00:22;;;;;;;4.13;1.25;;;13.40;99.90;;;;;;4939242;29;20048;-75
2022/09/20 09:02:52;;;;;;;4.28;1.80;;;13.50;99.90;;;;;;4939586;29;20122;-75
2022/09/20 09:05:30;;;;;;;5.13;1.45;;;13.60;99.90;;;;;;4939095;29;20047;-79
2022/09/20 09:07:59;;;;;;;3.65;1.30;;;13.70;99.90;;;;;;4939048;29;20051;-75
2022/09/20 09:10:35;;;;;;;5.22;1.17;;;13.80;99.90;;;;;;4939020;29;20107;-75
2022/09/20 09:13:01;;;;;;;3.90;1.00;;;13.80;99.90;;;;;;4940427;29;20076;-78
2022/09/20 09:15:31;;;;;;;4.07;1.25;;;13.90;99.90;;;;;;4938906;29;20464;-77
2022/09/20 09:17:57;;;;;;;5.07;1.20;;;14.00;99.90;;;;;;4938848;29;20047;-80
2022/09/20 09:20:23;;;;;;;3.03;1.30;;;14.10;99.90;;;;;;4937431;29;20043;-77
2022/09/20 09:23:05;;;;;;;4.72;1.20;;;14.10;99.90;;;;;;4938892;29;20098;-79
2022/09/20 09:25:37;;;;;;;3.08;1.00;;;14.40;99.90;;;;;;4938837;29;20131;-81
2022/09/20 09:28:12;;;;;;;2.40;0.98;;;14.50;99.90;;;;;;4938838;29;20056;-74
2022/09/20 09:30:45;;;;;;;2.65;0.85;;;14.40;99.90;;;;;;4937450;29;20103;-77
2022/09/20 09:33:27;;;;;;;3.55;1.10;;;14.40;99.90;;;;;;4938633;29;20054;-78
2022/09/20 09:36:05;;;;;;;2.78;1.13;;;14.50;99.90;;;;;;4938507;29;20094;-79
2022/09/20 09:38:35;;;;;;;4.90;1.23;;;14.50;99.90;;;;;;4938473;29;20403;-77
2022/09/20 09:41:24;;;;;;;4.20;1.27;;;14.60;99.90;;;;;;4938340;29;20048;-79
2022/09/20 09:44:26;;;;;;;3.55;1.08;;;14.60;99.90;;;;;;4937552;29;20078;-79
2022/09/20 09:46:53;;;;;;;5.75;1.00;;;14.60;99.90;;;;;;4938477;29;20632;-77
2022/09/20 09:49:21;;;;;;;2.55;0.90;;;14.70;99.90;;;;;;4938395;29;20040;-76
2022/09/20 09:52:23;;;;;;;3.65;1.02;;;14.80;99.90;;;;;;4938347;29;20132;-77
2022/09/20 09:54:59;;;;;;;3.70;0.85;;;14.60;99.90;;;;;;4938603;29;20056;-79
2022/09/20 09:57:56;;;;;;;4.30;1.10;;;14.60;99.90;;;;;;4938553;29;20078;-76
2022/09/20 10:00:23;;;;;;;2.28;0.88;;;14.60;99.90;;;;;;4938271;29;20062;-80
2022/09/20 10:03:07;;;;;;;;;;;14.70;99.90;;;;;;4938538;29;20043;-80
2022/09/20 10:06:17;;;;;;;3.35;1.25;;;14.80;99.90;;;;;;4938129;29;19923;-81
2022/09/20 10:09:15;;;;;;;8.20;1.30;;;14.90;99.90;;;;;;4938167;29;20111;-81
2022/09/20 10:11:57;;;;;;;;;;;15.10;99.90;;;;;;4937707;29;20138;-79
2022/09/20 10:15:03;;;;;;;4.03;0.90;;;15.10;99.90;;;;;;4937927;29;19926;-80
2022/09/20 10:17:54;;;;;;;3.33;1.00;;;15.30;99.90;;;;;;4937321;29;20139;-80
2022/09/20 10:20:38;;;;;;;3.13;0.98;;;15.30;99.90;;;;;;4936637;29;20526;-79
2022/09/20 10:23:12;;;;;;;5.10;1.23;;;15.50;99.90;;;;;;4937746;29;20043;-80
2022/09/20 10:26:08;;;;;;;3.42;0.85;;;15.70;99.90;;;;;;4937819;29;20380;-78
2022/09/20 10:28:54;;;;;;;4.38;0.90;;;15.80;99.90;;;;;;4937819;29;20058;-78
2022/09/20 10:31:47;;;;;;;4.03;1.00;;;15.90;99.90;;;;;;4937083;29;20159;-78
2022/09/20 10:34:30;;;;;;;3.22;0.98;;;16.00;99.90;;;;;;4937538;29;20047;-82
2022/09/20 10:36:57;;;;;;;5.05;1.23;;;16.10;99.90;;;;;;4937499;29;20131;-83
2022/09/20 10:39:32;;;;;;;5.00;1.08;;;16.30;99.90;;;;;;4937304;29;20143;-81
2022/09/20 10:45:17;;;;;;;3.97;1.17;;;16.50;99.90;;;;;;4937962;29;20134;-81
2022/09/20 10:47:55;;;;;;;2.85;0.82;;;16.90;99.90;;;;;;4936808;29;20048;-82
2022/09/20 10:50:32;;;;;;;3.35;1.33;;;16.90;99.90;;;;;;4937897;29;20054;-80
2022/09/20 10:53:30;;;;;;;2.83;1.17;;;16.90;99.90;;;;;;4955346;29;20483;-82
2022/09/20 10:56:14;;;;;;;4.88;1.10;;;16.80;99.90;;;;;;4955472;29;20534;-81
2022/09/20 10:59:01;;;;;;;4.38;0.80;;;16.60;99.90;;;;;;4955724;28;20126;-82
2022/09/20 11:01:54;;;;;;;4.40;1.20;;;16.30;99.90;;;;;;4939111;29;20055;-81
2022/09/20 11:04:47;;;;;;;5.70;1.02;;;16.00;99.90;;;;;;4954988;28;20060;-84
2022/09/20 11:07:22;;;;;;;2.67;0.90;;;15.70;99.90;;;;;;4954611;29;20054;-82
2022/09/20 11:09:56;;;;;;;5.28;1.10;;;15.70;99.90;;;;;;4954738;29;20043;-82
2022/09/20 11:12:41;;;;;;;5.95;1.30;;;15.10;99.90;;;;;;4954929;29;20391;-82
2022/09/20 11:15:36;;;;;;;6.43;1.00;;;15.00;99.90;;;;;;4954563;29;20047;-79
2022/09/20 11:18:22;;;;;;;3.42;1.10;;;14.80;99.90;;;;;;4953810;28;20051;-81
2022/09/20 11:20:57;;;;;;;3.40;1.40;;;14.80;99.90;;;;;;4955257;29;20043;-82
2022/09/20 11:23:32;;;;;;;5.07;1.05;;;14.60;99.90;;;;;;4955925;28;20047;-80
2022/09/20 11:26:06;;;;;;;4.43;1.15;;;14.90;99.90;;;;;;4955255;29;20142;-78
2022/09/20 11:28:56;;;;;;;4.40;1.20;;;14.60;99.90;;;;;;4955835;28;20051;-80
2022/09/20 11:31:32;;;;;;;4.18;1.27;;;14.80;99.90;;;;;;4955843;28;20083;-80
2022/09/20 11:34:27;;;;;;;6.13;1.02;;;14.90;99.90;;;;;;4956257;28;20070;-77
2022/09/20 11:37:01;;;;;;;5.22;1.05;;;15.10;99.90;;;;;;4955034;29;20055;-80
2022/09/20 11:39:41;;;;;;;4.18;1.00;;;15.30;99.90;;;;;;4956019;28;20074;-78
2022/09/20 11:42:14;;;;;;;4.93;1.20;;;15.50;99.90;;;;;;4956280;28;20483;-79
2022/09/20 11:44:41;;;;;;;7.63;1.40;;;15.60;99.90;;;;;;4955531;28;20133;-78
2022/09/20 11:47:19;;;;;;;4.07;1.20;;;15.90;99.90;;;;;;4955666;28;20126;-78
2022/09/20 11:49:59;;;;;;;4.28;1.15;;;16.10;99.90;;;;;;4955557;28;20047;-81
2022/09/20 11:52:29;;;;;;;2.67;0.80;;;16.30;99.90;;;;;;4955804;29;20082;-79
2022/09/20 11:55:21;;;;;;;3.88;1.00;;;16.50;99.90;;;;;;4955541;28;20051;-81
2022/09/20 11:58:03;;;;;;;4.18;1.00;;;16.60;99.90;;;;;;4955476;28;20436;-83
2022/09/20 12:00:34;;;;;;;4.75;1.05;;;16.80;99.90;;;;;;4954815;28;20043;-83
2022/09/20 12:03:02;;;;;;;2.92;1.23;;;16.90;99.90;;;;;;4955743;28;20372;-82
2022/09/20 12:05:38;;;;;;;4.20;1.20;;;17.00;99.90;;;;;;4938899;29;20055;-82
2022/09/20 12:08:32;;;;;;;3.35;0.95;;;16.90;99.90;;;;;;4954644;29;20479;-82
2022/09/20 12:11:07;;;;;;;4.15;1.13;;;16.80;99.90;;;;;;4953987;29;20425;-82
2022/09/20 12:13:36;;;;;;;3.67;0.90;;;16.60;99.90;;;;;;4955330;28;20134;-80
2022/09/20 12:16:14;;;;;;;4.43;1.13;;;16.30;99.90;;;;;;4955491;28;20404;-78
2022/09/20 12:19:01;;;;;;;3.58;1.05;;;16.20;99.90;;;;;;4958000;28;20055;-82
2022/09/20 12:21:27;;;;;;;3.80;1.15;;;16.00;99.90;;;;;;4957848;29;20043;-84
2022/09/20 12:23:55;;;;;;;5.17;0.87;;;16.00;99.90;;;;;;4956973;29;20043;-82
2022/09/20 12:26:21;;;;;;;4.03;1.20;;;16.00;99.90;;;;;;4959011;28;20043;-84
2022/09/20 12:28:52;;;;;;;5.27;1.10;;;16.40;99.90;;;;;;4958997;28;20501;-84
2022/09/20 12:31:18;;;;;;;4.38;0.93;;;16.00;99.90;;;;;;4958965;29;20050;-83
2022/09/20 12:34:08;;;;;;;3.20;1.00;;;16.30;99.90;;;;;;4942006;29;20553;-82
2022/09/20 12:36:43;;;;;;;4.18;1.02;;;16.30;99.90;;;;;;4957618;29;20058;-83
2022/09/20 12:39:11;;;;;;;4.93;1.02;;;16.40;99.90;;;;;;4957614;29;20076;-82
2022/09/20 12:42:11;;;;;;;5.72;1.10;;;16.50;99.90;;;;;;4941728;29;20150;-83
2022/09/20 12:44:39;;;;;;;3.60;0.90;;;16.50;99.90;;;;;;4958654;29;20055;-83
2022/09/20 12:47:10;;;;;;;3.92;0.80;;;16.50;99.90;;;;;;4958608;29;20039;-82
2022/09/20 12:52:56;;;;;;;3.80;1.10;;;16.70;99.90;;;;;;4938007;28;20051;-84
2022/09/20 12:55:39;;;;;;;3.58;1.00;;;16.70;99.90;;;;;;4958800;28;20059;-82
2022/09/20 12:58:13;;;;;;;3.28;0.88;;;16.70;99.90;;;;;;4957339;29;20130;-82
2022/09/20 13:00:58;;;;;;;4.25;1.08;;;16.90;99.90;;;;;;4958269;28;20047;-83
2022/09/20 13:03:40;;;;;;;5.55;1.00;;;16.80;99.90;;;;;;4941410;29;20110;-84
2022/09/20 13:06:05;;;;;;;3.30;1.00;;;16.90;99.90;;;;;;4957151;29;20478;-82
2022/09/20 13:08:46;;;;;;;5.97;1.30;;;16.80;99.90;;;;;;4957038;29;20086;-82
2022/09/20 13:11:23;;;;;;;4.25;1.30;;;16.70;99.90;;;;;;4958045;28;20055;-82
2022/09/20 13:14:24;;;;;;;3.92;1.17;;;16.60;99.90;;;;;;4958364;28;20047;-81
2022/09/20 13:16:53;;;;;;;2.67;1.00;;;16.50;99.90;;;;;;4957144;29;20098;-82
2022/09/20 13:19:45;;;;;;;2.85;0.77;;;16.30;99.90;;;;;;4958161;29;20050;-81
2022/09/20 13:22:24;;;;;;;4.53;1.17;;;16.10;99.90;;;;;;4956778;28;20503;-82
2022/09/20 13:24:54;;;;;;;4.85;1.20;;;16.10;99.90;;;;;;4957131;29;20078;-79
2022/09/20 13:27:21;;;;;;;7.18;1.67;;;16.10;99.90;;;;;;4957990;28;20062;-78
2022/09/20 13:29:48;;;;;;;3.63;1.13;;;15.90;99.90;;;;;;4956938;28;20051;-79
2022/09/20 13:32:17;;;;;;;4.78;1.20;;;15.90;99.90;;;;;;4957311;28;20043;-81
2022/09/20 13:34:44;;;;;;;2.63;0.98;;;15.90;99.90;;;;;;4956573;29;20059;-81
2022/09/20 13:37:22;;;;;;;3.17;1.17;;;15.80;99.90;;;;;;4956551;29;20047;-81
2022/09/20 13:39:53;;;;;;;4.40;1.10;;;15.80;99.90;;;;;;4957895;28;20448;-79
2022/09/20 13:42:19;;;;;;;3.28;1.13;;;15.90;99.90;;;;;;4956477;29;20050;-79
2022/09/20 13:44:47;;;;;;;4.23;1.17;;;15.80;99.90;;;;;;4957210;29;20047;-79
2022/09/20 13:47:22;;;;;;;4.15;1.00;;;15.90;99.90;;;;;;4957572;28;20309;-79
2022/09/20 13:49:49;;;;;;;6.22;1.20;;;16.10;99.90;;;;;;4957797;29;20043;-81
2022/09/20 13:52:26;;;;;;;5.53;1.20;;;15.90;99.90;;;;;;4955058;28;20145;-84
2022/09/20 13:54:54;;;;;;;;;;;16.10;99.90;;;;;;4956653;29;20047;-85
2022/09/20 13:57:26;;;;;;;4.68;1.13;;;16.00;99.90;;;;;;4955929;29;20044;-80
2022/09/20 13:59:53;;;;;;;4.22;1.13;;;16.20;99.90;;;;;;4956322;29;20058;-81
2022/09/20 14:02:23;;;;;;;2.67;0.88;;;16.20;99.90;;;;;;4956315;29;20051;-78
2022/09/20 14:04:52;;;;;;;4.60;1.02;;;16.10;99.90;;;;;;4956083;29;20047;-82
2022/09/20 14:07:18;;;;;;;3.25;1.00;;;16.20;99.90;;;;;;4955397;29;20376;-81